createdAt,value
2023-04-02T00:00:21.419Z,100965.66
2023-04-02T00:02:57.748Z,100970.22
2023-04-02T00:05:51.455Z,100984.34
2023-04-02T00:08:29.573Z,100976.06
2023-04-02T00:11:02.823Z,100972.59
2023-04-02T00:13:35.157Z,100988.91
2023-04-02T00:16:04.703Z,100986.56
2023-04-02T00:18:35.368Z,100992.56
2023-04-02T00:21:13.750Z,101009.06
2023-04-02T00:23:44.607Z,101008.41
2023-04-02T00:26:30.520Z,101017.00
2023-04-02T00:29:02.323Z,101013.63
2023-04-02T00:31:33.617Z,101022.34
2023-04-02T00:34:04.752Z,101040.53
2023-04-02T00:36:35.848Z,101035.50
2023-04-02T00:39:14.954Z,101030.41
2023-04-02T00:41:47.213Z,101033.88
2023-04-02T00:44:22.135Z,101039.03
2023-04-02T00:46:51.298Z,101045.28
2023-04-02T00:49:30.715Z,101042.41
2023-04-02T00:52:03.437Z,101044.31
2023-04-02T00:54:34.148Z,101041.69
2023-04-02T00:57:03.011Z,101056.53
2023-04-02T00:59:33.102Z,101068.53
2023-04-02T01:02:22.453Z,101059.03
2023-04-02T01:04:54.681Z,101074.06
2023-04-02T01:07:35.908Z,101087.06
2023-04-02T01:10:19.390Z,101093.22
2023-04-02T01:12:59.057Z,101090.50
2023-04-02T01:15:32.598Z,101094.94
2023-04-02T01:18:18.656Z,101103.94
2023-04-02T01:21:19.542Z,101100.38
2023-04-02T01:24:00.017Z,101102.69
2023-04-02T01:26:47.999Z,101107.91
2023-04-02T01:29:20.727Z,101107.03
2023-04-02T01:31:50.398Z,101111.47
2023-04-02T01:34:20.966Z,101122.03
2023-04-02T01:37:02.180Z,101130.81
2023-04-02T01:39:41.743Z,101144.06
2023-04-02T01:42:16.621Z,101143.28
2023-04-02T01:44:50.431Z,101153.94
2023-04-02T01:47:20.859Z,101156.59
2023-04-02T01:49:49.294Z,101157.50
2023-04-02T01:52:21.121Z,101167.91
2023-04-02T01:54:49.441Z,101170.69
2023-04-02T01:57:17.754Z,101182.03
2023-04-02T01:59:47.479Z,101177.88
2023-04-02T02:02:19.845Z,101182.03
2023-04-02T02:04:47.975Z,101189.00
2023-04-02T02:07:17.874Z,101192.63
2023-04-02T02:09:46.609Z,101193.53
2023-04-02T02:12:16.380Z,101191.75
2023-04-02T02:14:49.838Z,101206.66
2023-04-02T02:17:21.604Z,101206.81
2023-04-02T02:19:53.662Z,101211.94
2023-04-02T02:22:28.510Z,101211.06
2023-04-02T02:24:58.621Z,101222.31
2023-04-02T02:27:50.718Z,101232.81
2023-04-02T02:30:23.424Z,101232.03
2023-04-02T02:32:57.524Z,101226.88
2023-04-02T02:35:32.020Z,101240.81
2023-04-02T02:38:12.845Z,101248.69
2023-04-02T02:40:46.269Z,101246.13
2023-04-02T02:43:16.887Z,101249.47
2023-04-02T02:45:48.432Z,101265.25
2023-04-02T02:48:20.474Z,101260.09
2023-04-02T02:50:49.126Z,101261.00
2023-04-02T02:53:20.729Z,101263.00
2023-04-02T02:55:51.960Z,101281.41
2023-04-02T02:58:26.497Z,101285.75
2023-04-02T03:00:56.599Z,101285.84
2023-04-02T03:03:29.221Z,101289.16
2023-04-02T03:06:02.241Z,101300.59
2023-04-02T03:08:34.794Z,101310.63
2023-04-02T03:11:06.282Z,101323.09
2023-04-02T03:13:36.751Z,101314.34
2023-04-02T03:16:12.438Z,101324.09
2023-04-02T03:18:47.299Z,101319.88
2023-04-02T03:21:23.979Z,101324.25
2023-04-02T03:23:56.591Z,101327.78
2023-04-02T03:26:31.420Z,101339.00
2023-04-02T03:29:03.899Z,101337.22
2023-04-02T03:31:38.909Z,101344.09
2023-04-02T03:34:14.700Z,101348.34
2023-04-02T03:36:49.798Z,101356.41
2023-04-02T03:39:23.908Z,101358.09
2023-04-02T03:41:56.439Z,101361.69
2023-04-02T03:44:29.091Z,101364.22
2023-04-02T03:47:02.297Z,101366.75
2023-04-02T03:49:35.494Z,101376.38
2023-04-02T03:52:07.491Z,101377.38
2023-04-02T03:54:35.841Z,101387.72
2023-04-02T03:57:04.506Z,101394.66
2023-04-02T03:59:40.866Z,101405.94
2023-04-02T04:02:28.178Z,101420.72
2023-04-02T04:04:58.180Z,101417.41
2023-04-02T04:07:32.616Z,101423.50
2023-04-02T04:10:02.266Z,101432.25
2023-04-02T04:12:33.767Z,101434.88
2023-04-02T04:15:07.697Z,101431.59
2023-04-02T04:17:51.761Z,101449.84
2023-04-02T04:20:23.277Z,101449.13
2023-04-02T04:22:55.753Z,101459.53
2023-04-02T04:25:29.539Z,101466.50
2023-04-02T04:28:07.773Z,101472.50
2023-04-02T04:30:45.300Z,101483.00
2023-04-02T04:33:23.055Z,101483.00
2023-04-02T04:35:55.875Z,101502.28
2023-04-02T04:38:33.001Z,101505.06
2023-04-02T04:41:06.723Z,101504.28
2023-04-02T04:43:43.952Z,101506.75
2023-04-02T04:46:16.112Z,101519.31
2023-04-02T04:48:53.290Z,101517.59
2023-04-02T04:51:25.360Z,101527.09
2023-04-02T04:53:56.275Z,101537.50
2023-04-02T04:56:27.731Z,101549.84
2023-04-02T04:59:02.214Z,101552.53
2023-04-02T05:01:38.227Z,101552.53
2023-04-02T05:04:17.125Z,101563.88
2023-04-02T05:06:53.207Z,101576.16
2023-04-02T05:09:25.882Z,101583.34
2023-04-02T05:11:57.127Z,101579.94
2023-04-02T05:14:32.579Z,101593.78
2023-04-02T05:17:07.298Z,101600.75
2023-04-02T05:19:44.429Z,101604.34
2023-04-02T05:22:23.676Z,101619.06
2023-04-02T05:25:00.685Z,101623.44
2023-04-02T05:27:37.523Z,101631.28
2023-04-02T05:30:14.207Z,101635.56
2023-04-02T05:32:47.200Z,101632.25
2023-04-02T05:35:20.851Z,101640.91
2023-04-02T05:37:51.464Z,101634.97
2023-04-02T05:40:27.702Z,101647.09
2023-04-02T05:42:56.804Z,101650.72
2023-04-02T05:45:31.801Z,101655.91
2023-04-02T05:48:03.993Z,101666.41
2023-04-02T05:50:37.499Z,101674.16
2023-04-02T05:53:13.855Z,101682.84
2023-04-02T05:55:50.557Z,101691.59
2023-04-02T06:01:07.777Z,101694.25
2023-04-02T06:03:46.568Z,101701.25
2023-04-02T06:06:27.048Z,101701.31
2023-04-02T06:09:00.239Z,101707.31
2023-04-02T06:11:32.641Z,101703.91
2023-04-02T06:14:01.202Z,101713.50
2023-04-02T06:16:31.995Z,101723.00
2023-04-02T06:19:00.133Z,101733.44
2023-04-02T06:21:29.646Z,101733.41
2023-04-02T06:24:03.540Z,101747.38
2023-04-02T06:26:35.289Z,101752.69
2023-04-02T06:29:08.200Z,101753.63
2023-04-02T06:31:40.214Z,101757.00
2023-04-02T06:34:16.334Z,101764.72
2023-04-02T06:36:46.524Z,101771.75
2023-04-02T06:39:19.865Z,101776.94
2023-04-02T06:41:48.240Z,101787.41
2023-04-02T06:44:20.040Z,101789.09
2023-04-02T06:46:52.451Z,101805.50
2023-04-02T06:49:24.974Z,101799.50
2023-04-02T06:51:56.332Z,101808.97
2023-04-02T06:54:24.576Z,101809.72
2023-04-02T06:56:56.350Z,101821.03
2023-04-02T06:59:24.758Z,101822.72
2023-04-02T07:01:57.270Z,101834.81
2023-04-02T07:04:27.607Z,101834.75
2023-04-02T07:06:57.223Z,101846.09
2023-04-02T07:09:25.927Z,101854.66
2023-04-02T07:11:54.012Z,101850.31
2023-04-02T07:14:22.114Z,101859.66
2023-04-02T07:16:50.361Z,101860.63
2023-04-02T07:19:21.286Z,101863.19
2023-04-02T07:21:49.444Z,101875.38
2023-04-02T07:24:18.870Z,101878.78
2023-04-02T07:26:48.305Z,101885.75
2023-04-02T07:29:17.511Z,101889.06
2023-04-02T07:31:45.722Z,101891.56
2023-04-02T07:34:13.899Z,101893.19
2023-04-02T07:36:42.321Z,101902.06
2023-04-02T07:39:13.404Z,101916.75
2023-04-02T07:41:54.453Z,101906.38
2023-04-02T07:44:22.617Z,101918.50
2023-04-02T07:46:51.198Z,101932.31
2023-04-02T07:49:19.282Z,101921.91
2023-04-02T07:51:47.883Z,101918.34
2023-04-02T07:54:15.917Z,101920.88
2023-04-02T07:56:46.248Z,101924.38
2023-04-02T07:59:15.889Z,101919.88
2023-04-02T08:01:43.970Z,101937.22
2023-04-02T08:04:19.492Z,101928.31
2023-04-02T08:06:48.337Z,101949.19
2023-04-02T08:09:16.775Z,101949.34
2023-04-02T08:11:46.644Z,101950.19
2023-04-02T08:14:16.414Z,101955.50
2023-04-02T08:16:46.984Z,101959.84
2023-04-02T08:19:15.605Z,101964.06
2023-04-02T08:21:50.037Z,101970.84
2023-04-02T08:24:20.177Z,101966.56
2023-04-02T08:26:49.001Z,101969.91
2023-04-02T08:29:18.465Z,101979.56
2023-04-02T08:31:46.581Z,101986.38
2023-04-02T08:34:14.652Z,101994.78
2023-04-02T08:36:45.602Z,101999.34
2023-04-02T08:39:13.804Z,102001.84
2023-04-02T08:41:46.977Z,102006.22
2023-04-02T08:44:40.910Z,102003.31
2023-04-02T08:47:10.964Z,102017.16
2023-04-02T08:49:44.065Z,102021.25
2023-04-02T08:52:21.987Z,102030.75
2023-04-02T08:54:51.338Z,102032.53
2023-04-02T08:57:28.547Z,102036.63
2023-04-02T09:00:02.847Z,102049.63
2023-04-02T09:02:38.821Z,102058.38
2023-04-02T09:05:16.383Z,102055.56
2023-04-02T09:07:44.528Z,102063.94
2023-04-02T09:10:16.402Z,102073.41
2023-04-02T09:12:47.222Z,102073.34
2023-04-02T09:15:29.476Z,102080.22
2023-04-02T09:18:01.255Z,102077.41
2023-04-02T09:20:29.708Z,102079.13
2023-04-02T09:22:58.999Z,102092.31
2023-04-02T09:25:29.789Z,102091.41
2023-04-02T09:28:01.751Z,102092.06
2023-04-02T09:30:48.213Z,102098.06
2023-04-02T09:33:19.387Z,102098.00
2023-04-02T09:35:56.788Z,102101.25
2023-04-02T09:38:29.146Z,102104.44
2023-04-02T09:41:01.491Z,102103.56
2023-04-02T09:43:31.280Z,102106.91
2023-04-02T09:46:02.913Z,102108.50
2023-04-02T09:48:35.397Z,102127.47
2023-04-02T09:51:08.894Z,102119.06
2023-04-02T09:53:40.519Z,102125.88
2023-04-02T09:56:15.755Z,102136.22
2023-04-02T09:58:45.635Z,102141.22
2023-04-02T10:01:30.498Z,102145.44
2023-04-02T10:04:00.051Z,102159.25
2023-04-02T10:06:30.697Z,102161.06
2023-04-02T10:08:59.423Z,102165.50
2023-04-02T10:11:46.124Z,102165.19
2023-04-02T10:14:20.230Z,102169.63
2023-04-02T10:16:53.078Z,102181.84
2023-04-02T10:19:30.070Z,102184.41
2023-04-02T10:22:00.961Z,102181.75
2023-04-02T10:24:30.131Z,102187.88
2023-04-02T10:27:09.852Z,102192.53
2023-04-02T10:29:58.303Z,102194.25
2023-04-02T10:32:33.451Z,102191.81
2023-04-02T10:35:04.685Z,102199.34
2023-04-02T10:37:55.894Z,102201.81
2023-04-02T10:40:29.822Z,102198.88
2023-04-02T10:43:23.625Z,102203.50
2023-04-02T10:45:57.867Z,102208.56
2023-04-02T10:48:34.086Z,102199.47
2023-04-02T10:51:07.936Z,102205.63
2023-04-02T10:53:45.180Z,102208.75
2023-04-02T10:56:15.518Z,102207.97
2023-04-02T10:58:57.257Z,102210.13
2023-04-02T11:01:29.388Z,102207.34
2023-04-02T11:04:02.582Z,102211.88
2023-04-02T11:06:34.032Z,102206.91
2023-04-02T11:09:06.141Z,102217.22
2023-04-02T11:11:39.891Z,102212.00
2023-04-02T11:14:15.132Z,102218.75
2023-04-02T11:16:44.863Z,102216.00
2023-04-02T11:19:27.576Z,102216.28
2023-04-02T11:22:00.991Z,102222.00
2023-04-02T11:24:49.767Z,102217.09
2023-04-02T11:27:24.312Z,102208.22
2023-04-02T11:29:56.547Z,102217.72
2023-04-02T11:32:35.770Z,102216.63
2023-04-02T11:35:27.015Z,102218.00
2023-04-02T11:37:56.575Z,102231.66
2023-04-02T11:40:53.012Z,102233.63
2023-04-02T11:43:53.000Z,102233.41
2023-04-02T11:46:46.688Z,102233.38
2023-04-02T11:49:40.862Z,102232.00
2023-04-02T11:52:24.529Z,102249.25
2023-04-02T11:55:24.459Z,102245.53
2023-04-02T11:58:32.243Z,102240.78
2023-04-02T12:01:40.463Z,102245.78
2023-04-02T12:04:38.280Z,102260.41
2023-04-02T12:07:26.862Z,102252.78
2023-04-02T12:09:59.397Z,102255.38
2023-04-02T12:12:33.602Z,102266.41
2023-04-02T12:15:02.069Z,102264.88
2023-04-02T12:17:32.710Z,102262.22
2023-04-02T12:20:07.874Z,102265.38
2023-04-02T12:22:39.648Z,102271.22
2023-04-02T12:25:32.245Z,102279.22
2023-04-02T12:28:17.851Z,102284.06
2023-04-02T12:30:47.358Z,102276.59
2023-04-02T12:33:27.824Z,102281.94
2023-04-02T12:35:58.777Z,102291.91
2023-04-02T12:38:28.424Z,102294.97
2023-04-02T12:40:59.546Z,102295.69
2023-04-02T12:43:29.295Z,102297.16
2023-04-02T12:46:00.421Z,102301.94
2023-04-02T12:48:29.602Z,102302.97
2023-04-02T12:50:58.240Z,102312.00
2023-04-02T12:53:34.595Z,102298.84
2023-04-02T12:56:05.250Z,102306.88
2023-04-02T12:58:36.933Z,102297.50
2023-04-02T13:01:14.226Z,102299.56
2023-04-02T13:03:42.620Z,102302.41
2023-04-02T13:06:30.645Z,102294.09
2023-04-02T13:08:59.941Z,102302.72
2023-04-02T13:11:38.587Z,102307.84
2023-04-02T13:14:09.044Z,102299.72
2023-04-02T13:16:39.891Z,102309.09
2023-04-02T13:19:21.041Z,102307.09
2023-04-02T13:21:49.491Z,102308.16
2023-04-02T13:24:19.111Z,102303.91
2023-04-02T13:26:49.851Z,102306.78
2023-04-02T13:29:25.202Z,102307.28
2023-04-02T13:31:54.671Z,102305.63
2023-04-02T13:34:22.833Z,102309.53
2023-04-02T13:36:50.989Z,102304.69
2023-04-02T13:39:20.882Z,102300.75
2023-04-02T13:41:52.654Z,102304.75
2023-04-02T13:44:23.719Z,102297.84
2023-04-02T13:46:52.571Z,102301.50
2023-04-02T13:49:20.923Z,102311.75
2023-04-02T13:51:51.824Z,102309.31
2023-04-02T13:54:25.776Z,102302.44
2023-04-02T13:56:57.171Z,102306.81
2023-04-02T13:59:26.058Z,102313.38
2023-04-02T14:01:58.958Z,102316.25
2023-04-02T14:04:30.798Z,102308.41
2023-04-02T14:07:27.425Z,102318.28
2023-04-02T14:10:06.406Z,102311.56
2023-04-02T14:12:53.970Z,102313.28
2023-04-02T14:15:40.694Z,102318.78
2023-04-02T14:18:36.709Z,102326.91
2023-04-02T14:21:14.525Z,102326.94
2023-04-02T14:23:56.490Z,102339.41
2023-04-02T14:26:39.498Z,102333.22
2023-04-02T14:29:13.306Z,102332.34
2023-04-02T14:31:48.129Z,102338.34
2023-04-02T14:34:29.230Z,102341.81
2023-04-02T14:37:06.891Z,102340.38
2023-04-02T14:39:46.115Z,102351.22
2023-04-02T14:42:18.363Z,102348.06
2023-04-02T14:44:53.351Z,102343.44
2023-04-02T14:47:27.344Z,102349.38
2023-04-02T14:50:01.646Z,102353.34
2023-04-02T14:52:34.544Z,102360.97
2023-04-02T14:55:04.318Z,102359.06
2023-04-02T14:57:36.529Z,102357.00
2023-04-02T15:00:24.254Z,102359.66
2023-04-02T15:02:58.670Z,102358.50
2023-04-02T15:05:35.404Z,102365.91
2023-04-02T15:08:08.218Z,102365.97
2023-04-02T15:10:38.122Z,102363.19
2023-04-02T15:13:16.323Z,102366.59
2023-04-02T15:15:50.459Z,102373.03
2023-04-02T15:18:19.497Z,102373.63
2023-04-02T15:20:55.016Z,102379.69
2023-04-02T15:23:35.594Z,102389.13
2023-04-02T15:26:12.417Z,102397.16
2023-04-02T15:28:45.022Z,102383.91
2023-04-02T15:31:16.540Z,102391.09
2023-04-02T15:33:46.566Z,102382.47
2023-04-02T15:36:45.880Z,102386.56
2023-04-02T15:39:38.055Z,102385.28
2023-04-02T15:42:16.170Z,102386.22
2023-04-02T15:44:57.814Z,102388.13
2023-04-02T15:47:37.820Z,102399.22
2023-04-02T15:50:20.468Z,102395.97
2023-04-02T15:52:55.881Z,102396.03
2023-04-02T15:55:34.296Z,102399.63
2023-04-02T15:58:25.705Z,102396.47
2023-04-02T16:01:09.616Z,102401.03
2023-04-02T16:04:03.191Z,102405.06
2023-04-02T16:06:41.373Z,102412.13
2023-04-02T16:09:23.452Z,102415.38
2023-04-02T16:11:58.455Z,102413.06
2023-04-02T16:14:30.224Z,102421.66
2023-04-02T16:17:08.072Z,102424.88
2023-04-02T16:19:50.420Z,102426.72
2023-04-02T16:22:24.839Z,102424.69
2023-04-02T16:25:01.034Z,102426.59
2023-04-02T16:27:34.385Z,102439.84
2023-04-02T16:30:19.005Z,102437.34
2023-04-02T16:33:00.923Z,102438.19
2023-04-02T16:35:43.505Z,102444.88
2023-04-02T16:38:16.551Z,102444.34
2023-04-02T16:41:06.913Z,102445.53
2023-04-02T16:43:47.187Z,102451.91
2023-04-02T16:46:38.242Z,102455.38
2023-04-02T16:49:17.719Z,102461.66
2023-04-02T16:51:58.935Z,102472.84
2023-04-02T16:54:34.813Z,102470.22
2023-04-02T16:57:17.419Z,102473.28
2023-04-02T16:59:57.705Z,102476.78
2023-04-02T17:02:37.447Z,102479.41
2023-04-02T17:05:15.960Z,102480.53
2023-04-02T17:07:52.776Z,102484.00
2023-04-02T17:10:30.829Z,102492.31
2023-04-02T17:13:16.937Z,102497.53
2023-04-02T17:15:50.931Z,102500.16
2023-04-02T17:18:20.973Z,102503.06
2023-04-02T17:20:49.552Z,102502.91
2023-04-02T17:23:22.080Z,102503.97
2023-04-02T17:25:55.182Z,102504.13
2023-04-02T17:28:29.634Z,102498.94
2023-04-02T17:31:01.254Z,102508.78
2023-04-02T17:33:29.349Z,102508.88
2023-04-02T17:36:10.921Z,102509.13
2023-04-02T17:38:46.263Z,102511.91
2023-04-02T17:41:20.742Z,102521.53
2023-04-02T17:43:57.973Z,102520.97
2023-04-02T17:46:36.172Z,102527.13
2023-04-02T17:49:13.061Z,102532.56
2023-04-02T17:51:47.437Z,102528.97
2023-04-02T17:54:30.919Z,102535.09
2023-04-02T17:57:18.396Z,102543.06
2023-04-02T18:00:01.702Z,102550.03
2023-04-02T18:02:43.237Z,102553.53
2023-04-02T18:05:26.889Z,102558.38
2023-04-02T18:08:08.062Z,102553.31
2023-04-02T18:10:47.707Z,102561.03
2023-04-02T18:13:25.872Z,102566.31
2023-04-02T18:16:28.270Z,102570.06
2023-04-02T18:19:11.786Z,102575.16
2023-04-02T18:21:46.439Z,102588.59
2023-04-02T18:24:34.414Z,102589.56
2023-04-02T18:27:17.832Z,102588.72
2023-04-02T18:29:57.659Z,102595.81
2023-04-02T18:32:53.969Z,102598.69
2023-04-02T18:35:26.549Z,102604.09
2023-04-02T18:38:17.204Z,102600.91
2023-04-02T18:41:05.829Z,102606.22
2023-04-02T18:43:43.886Z,102607.19
2023-04-02T18:46:23.401Z,102610.78
2023-04-02T18:48:57.876Z,102617.16
2023-04-02T18:51:27.791Z,102618.22
2023-04-02T18:54:10.989Z,102623.63
2023-04-02T18:56:41.658Z,102627.31
2023-04-02T18:59:29.626Z,102630.75
2023-04-02T19:02:01.431Z,102631.72
2023-04-02T19:04:33.708Z,102645.91
2023-04-02T19:07:06.153Z,102645.41
2023-04-02T19:09:41.138Z,102648.06
2023-04-02T19:12:16.623Z,102652.50
2023-04-02T19:14:49.711Z,102658.69
2023-04-02T19:17:28.401Z,102659.78
2023-04-02T19:20:08.731Z,102673.03
2023-04-02T19:22:43.342Z,102677.44
2023-04-02T19:25:36.035Z,102668.03
2023-04-02T19:28:09.473Z,102673.34
2023-04-02T19:31:09.309Z,102676.88
2023-04-02T19:33:46.563Z,102679.56
2023-04-02T19:36:41.762Z,102681.47
2023-04-02T19:39:34.818Z,102687.56
2023-04-02T19:42:11.846Z,102687.59
2023-04-02T19:44:45.652Z,102686.97
2023-04-02T19:47:17.378Z,102688.84
2023-04-02T19:49:46.108Z,102697.56
2023-04-02T19:52:14.258Z,102696.69
2023-04-02T19:54:42.308Z,102697.69
2023-04-02T19:57:15.599Z,102699.66
2023-04-02T19:59:43.943Z,102711.63
2023-04-02T20:02:12.605Z,102709.16
2023-04-02T20:04:49.850Z,102711.72
2023-04-02T20:07:18.655Z,102724.03
2023-04-02T20:09:46.681Z,102720.63
2023-04-02T20:12:14.813Z,102719.84
2023-04-02T20:14:45.449Z,102716.38
2023-04-02T20:17:13.556Z,102720.75
2023-04-02T20:19:43.095Z,102721.63
2023-04-02T20:22:11.281Z,102724.34
2023-04-02T20:24:40.998Z,102732.16
2023-04-02T20:27:14.404Z,102736.56
2023-04-02T20:29:42.610Z,102731.41
2023-04-02T20:32:15.902Z,102735.84
2023-04-02T20:34:49.192Z,102733.25
2023-04-02T20:37:17.310Z,102742.84
2023-04-02T20:39:45.536Z,102743.78
2023-04-02T20:42:14.300Z,102745.50
2023-04-02T20:44:42.688Z,102747.31
2023-04-02T20:47:11.117Z,102751.72
2023-04-02T20:49:39.264Z,102750.03
2023-04-02T20:52:09.300Z,102753.50
2023-04-02T20:54:37.660Z,102756.16
2023-04-02T20:57:06.376Z,102756.22
2023-04-02T20:59:36.865Z,102764.06
2023-04-02T21:02:04.983Z,102765.81
2023-04-02T21:04:33.099Z,102772.81
2023-04-02T21:07:03.969Z,102778.03
2023-04-02T21:09:33.560Z,102779.78
2023-04-02T21:12:01.610Z,102781.50
2023-04-02T21:14:36.202Z,102787.63
2023-04-02T21:17:04.396Z,102785.03
2023-04-02T21:19:32.816Z,102791.13
2023-04-02T21:22:01.047Z,102789.41
2023-04-02T21:24:29.103Z,102792.88
2023-04-02T21:26:58.523Z,102792.91
2023-04-02T21:29:26.625Z,102792.06
2023-04-02T21:31:58.613Z,102799.91
2023-04-02T21:34:27.991Z,102800.78
2023-04-02T21:36:56.664Z,102805.09
2023-04-02T21:39:25.393Z,102803.38
2023-04-02T21:41:54.875Z,102808.59
2023-04-02T21:44:24.894Z,102800.78
2023-04-02T21:46:54.261Z,102813.84
2023-04-02T21:49:23.947Z,102810.38
2023-04-02T21:51:54.759Z,102813.84
2023-04-02T21:54:23.091Z,102823.41
2023-04-02T21:56:51.586Z,102819.06
2023-04-02T21:59:20.048Z,102816.47
2023-04-02T22:01:52.075Z,102827.75
2023-04-02T22:04:22.473Z,102827.78
2023-04-02T22:06:52.283Z,102833.00
2023-04-02T22:09:22.585Z,102825.16
2023-04-02T22:11:58.797Z,102830.41
2023-04-02T22:14:27.824Z,102827.78
2023-04-02T22:16:58.804Z,102826.09
2023-04-02T22:19:27.836Z,102832.16
2023-04-02T22:21:56.576Z,102825.19
2023-04-02T22:24:25.277Z,102823.47
2023-04-02T22:26:53.688Z,102829.56
2023-04-02T22:29:22.051Z,102832.16
2023-04-02T22:31:53.215Z,102834.78
2023-04-02T22:34:22.711Z,102833.94
2023-04-02T22:36:50.775Z,102834.78
2023-04-02T22:39:18.971Z,102840.03
2023-04-02T22:41:47.070Z,102838.28
2023-04-02T22:44:17.081Z,102842.63
2023-04-02T22:46:45.468Z,102837.41
2023-04-02T22:49:19.184Z,102846.94
2023-04-02T22:51:49.040Z,102844.34
2023-04-02T22:54:17.436Z,102848.69
2023-04-02T22:56:45.518Z,102840.84
2023-04-02T22:59:13.808Z,102840.03
2023-04-02T23:01:41.998Z,102850.44
2023-04-02T23:04:10.403Z,102844.38
2023-04-02T23:06:38.523Z,102855.63
2023-04-02T23:09:08.102Z,102853.06
2023-04-02T23:11:36.409Z,102845.25
2023-04-02T23:14:07.327Z,102856.50
2023-04-02T23:16:35.542Z,102854.78
2023-04-02T23:19:03.880Z,102854.78
2023-04-02T23:21:32.031Z,102863.47
2023-04-02T23:24:00.158Z,102860.00
2023-04-02T23:26:31.825Z,102860.00
2023-04-02T23:29:00.755Z,102855.66
2023-04-02T23:31:29.326Z,102854.78
2023-04-02T23:33:57.343Z,102862.59
2023-04-02T23:36:27.860Z,102871.25
2023-04-02T23:38:58.008Z,102866.94
2023-04-02T23:41:27.811Z,102866.06
2023-04-02T23:43:58.604Z,102862.63
2023-04-02T23:46:26.989Z,102859.13
2023-04-02T23:48:55.941Z,102860.00
2023-04-02T23:51:24.493Z,102866.06
2023-04-02T23:53:55.350Z,102867.81
2023-04-02T23:56:24.106Z,102863.47
2023-04-02T23:58:52.175Z,102868.66
